Time;durP1;ratioP1;P1;durP2;ratioP2;P2;SDS_P1;SDS_P2;PMS_P1;PMS_P2;Temp;Humidity;BMP_temperature;BMP_pressure;BME280_temperature;BME280_humidity;BME280_pressure;Samples;Min_cycle;Max_cycle;Signal;HPM_P1;HPM_P2
2021/12/02 00:01:24;;;;;;;;;2.00;2.00;;;;;;;;5073360;27;45465;-73
2021/12/02 00:03:49;;;;;;;;;1.75;1.75;;;;;;;;5074290;27;45381;-73
2021/12/02 00:06:16;;;;;;;;;1.75;1.00;;;;;;;;5080936;27;45484;-73
2021/12/02 00:08:42;;;;;;;;;3.75;1.00;;;;;;;;5065987;27;45453;-73
2021/12/02 00:11:07;;;;;;;;;3.50;2.00;;;;;;;;5082221;27;45548;-73
2021/12/02 00:13:53;;;;;;;;;2.50;2.00;;;;;;;;5078406;27;45588;-73
2021/12/02 00:16:33;;;;;;;;;3.00;3.00;;;;;;;;5071286;27;46130;-73
2021/12/02 00:21:45;;;;;;;;;4.25;1.50;;;;;;;;5080716;27;45604;-73
2021/12/02 00:24:12;;;;;;;;;3.00;1.25;;;;;;;;5074156;27;45616;-73
2021/12/02 00:26:38;;;;;;;;;2.00;1.75;;;;;;;;5077191;27;47410;-73
2021/12/02 00:29:05;;;;;;;;;4.50;2.00;;;;;;;;5082766;27;45474;-73
2021/12/02 00:31:32;;;;;;;;;3.00;3.00;;;;;;;;5078191;27;45585;-73
2021/12/02 00:33:59;;;;;;;;;2.00;1.75;;;;;;;;5074874;27;45458;-73
2021/12/02 00:36:27;;;;;;;;;6.75;4.00;;;;;;;;5076827;27;46178;-73
2021/12/02 00:38:53;;;;;;;;;8.50;1.25;;;;;;;;5063525;28;46566;-72
2021/12/02 00:41:20;;;;;;;;;1.50;1.50;;;;;;;;5082165;27;45460;-73
2021/12/02 00:43:46;;;;;;;;;1.25;1.25;;;;;;;;5085422;27;45489;-73
2021/12/02 00:46:14;;;;;;;;;3.50;3.00;;;;;;;;5076486;27;45502;-73
2021/12/02 00:48:40;;;;;;;;;2.00;2.00;;;;;;;;5058072;28;45963;-73
2021/12/02 00:51:05;;;;;;;;;3.00;1.75;;;;;;;;5080541;27;45355;-73
2021/12/02 00:53:32;;;;;;;;;2.00;2.00;;;;;;;;5078228;27;45461;-73
2021/12/02 00:56:01;;;;;;;;;2.00;1.00;;;;;;;;5073134;27;45656;-73
2021/12/02 00:58:26;;;;;;;;;3.00;1.75;;;;;;;;5078555;27;45368;-73
2021/12/02 01:00:53;;;;;;;;;2.50;1.00;;;;;;;;5071016;27;47734;-73
2021/12/02 01:03:18;;;;;;;;;5.00;2.50;;;;;;;;5080204;27;45469;-73
2021/12/02 01:05:43;;;;;;;;;5.00;1.75;;;;;;;;5077320;27;45409;-73
2021/12/02 01:08:09;;;;;;;;;7.00;2.67;;;;;;;;5077815;27;45378;-73
2021/12/02 01:10:34;;;;;;;;;2.00;2.00;;;;;;;;5077783;27;45345;-73
2021/12/02 01:12:59;;;;;;;;;4.25;2.00;;;;;;;;5089247;27;45433;-73
2021/12/02 01:15:25;;;;;;;;;4.67;4.67;;;;;;;;5077995;27;45390;-73
2021/12/02 01:17:50;;;;;;;;;3.25;3.25;;;;;;;;5076603;27;45872;-73
2021/12/02 01:20:16;;;;;;;;;6.00;3.00;;;;;;;;5059972;28;45545;-73
2021/12/02 01:22:41;;;;;;;;;6.33;2.00;;;;;;;;5080105;27;45228;-73
2021/12/02 01:25:08;;;;;;;;;5.75;2.00;;;;;;;;5055726;27;48471;-73
2021/12/02 01:27:35;;;;;;;;;4.25;4.00;;;;;;;;5084175;27;45466;-73
2021/12/02 01:30:01;;;;;;;;;7.50;5.25;;;;;;;;5092436;27;45513;-73
2021/12/02 01:32:27;;;;;;;;;7.00;5.50;;;;;;;;5085147;27;45493;-73
2021/12/02 01:34:56;;;;;;;;;5.75;4.25;;;;;;;;5084742;27;46046;-73
2021/12/02 01:37:21;;;;;;;;;7.00;6.00;;;;;;;;5057776;27;46358;-73
2021/12/02 01:39:48;;;;;;;;;3.50;3.00;;;;;;;;5055695;28;45630;-73
2021/12/02 01:42:23;;;;;;;;;7.50;5.00;;;;;;;;5079524;27;45450;-73
2021/12/02 01:44:48;;;;;;;;;5.00;3.00;;;;;;;;5077501;27;45265;-73
2021/12/02 01:47:14;;;;;;;;;11.00;7.00;;;;;;;;5078317;27;45309;-73
2021/12/02 01:49:41;;;;;;;;;8.00;5.00;;;;;;;;5077121;27;45358;-73
2021/12/02 01:52:09;;;;;;;;;7.25;7.25;;;;;;;;5060915;27;45442;-73
2021/12/02 01:54:41;;;;;;;;;5.00;5.00;;;;;;;;5091056;27;45547;-73
2021/12/02 01:57:09;;;;;;;;;8.00;6.50;;;;;;;;5087820;27;45879;-73
2021/12/02 01:59:35;;;;;;;;;6.25;6.00;;;;;;;;5086299;27;45399;-73
2021/12/02 02:02:05;;;;;;;;;9.25;7.25;;;;;;;;5085274;27;45435;-73
2021/12/02 02:04:31;;;;;;;;;5.75;5.50;;;;;;;;5080905;27;45530;-73
2021/12/02 02:06:57;;;;;;;;;8.33;7.67;;;;;;;;5069799;27;45519;-73
2021/12/02 02:09:23;;;;;;;;;11.00;7.00;;;;;;;;5086480;27;45551;-73
2021/12/02 02:11:49;;;;;;;;;6.00;5.00;;;;;;;;5083261;27;45392;-73
2021/12/02 02:14:14;;;;;;;;;8.75;7.00;;;;;;;;5085576;27;47692;-73
2021/12/02 02:16:41;;;;;;;;;7.00;6.00;;;;;;;;5084643;27;45398;-73
2021/12/02 02:19:08;;;;;;;;;7.00;5.75;;;;;;;;5087123;27;45548;-73
2021/12/02 02:21:36;;;;;;;;;6.00;5.50;;;;;;;;5076782;27;45541;-73
2021/12/02 02:24:02;;;;;;;;;8.50;6.75;;;;;;;;5056708;28;46028;-72
2021/12/02 02:26:30;;;;;;;;;6.00;5.50;;;;;;;;5075052;27;45513;-73
2021/12/02 02:28:56;;;;;;;;;8.00;6.25;;;;;;;;5080864;27;45387;-73
2021/12/02 02:31:22;;;;;;;;;5.50;4.00;;;;;;;;5084505;27;45501;-73
2021/12/02 02:33:51;;;;;;;;;6.00;3.00;;;;;;;;5072648;27;46116;-73
2021/12/02 02:36:18;;;;;;;;;6.75;4.25;;;;;;;;5078710;27;45345;-73
2021/12/02 02:38:45;;;;;;;;;3.50;3.50;;;;;;;;5075806;27;45440;-73
2021/12/02 02:41:12;;;;;;;;;6.00;3.00;;;;;;;;5074501;27;47286;-73
2021/12/02 02:43:37;;;;;;;;;7.50;3.00;;;;;;;;5076655;27;45724;-73
2021/12/02 02:46:02;;;;;;;;;6.00;4.00;;;;;;;;5056457;27;45516;-73
2021/12/02 02:48:29;;;;;;;;;7.00;3.67;;;;;;;;5079668;27;45467;-73
2021/12/02 02:50:54;;;;;;;;;3.00;3.00;;;;;;;;5063006;27;45458;-73
2021/12/02 02:53:22;;;;;;;;;4.50;2.50;;;;;;;;5087499;27;45359;-73
2021/12/02 02:56:34;;;;;;;;;2.75;2.25;;;;;;;;5084589;27;47105;-73
2021/12/02 02:58:57;;;;;;;;;5.00;2.50;;;;;;;;5068526;27;45521;-73
2021/12/02 03:06:34;;;;;;;;;4.50;2.00;;;;;;;;5089687;27;45465;-73
2021/12/02 03:09:26;;;;;;;;;2.75;1.50;;;;;;;;5091499;27;45483;-73
2021/12/02 03:11:49;;;;;;;;;2.00;1.00;;;;;;;;5088910;27;45794;-73
2021/12/02 03:14:20;;;;;;;;;1.25;1.00;;;;;;;;5078198;27;45430;-73
2021/12/02 03:16:45;;;;;;;;;2.00;1.00;;;;;;;;5069771;27;45798;-73
2021/12/02 03:19:15;;;;;;;;;2.50;1.50;;;;;;;;5071362;27;45593;-73
2021/12/02 03:21:41;;;;;;;;;2.00;2.00;;;;;;;;5076895;27;45383;-73
2021/12/02 03:24:06;;;;;;;;;3.50;2.00;;;;;;;;5081852;27;45290;-73
2021/12/02 03:26:32;;;;;;;;;1.00;1.00;;;;;;;;5078362;27;45799;-73
2021/12/02 03:28:57;;;;;;;;;3.50;1.00;;;;;;;;5083474;27;45302;-73
2021/12/02 03:31:23;;;;;;;;;1.33;0.00;;;;;;;;5091229;27;45561;-73
2021/12/02 03:33:49;;;;;;;;;2.00;2.00;;;;;;;;5066416;27;47755;-73
2021/12/02 03:36:15;;;;;;;;;3.75;1.00;;;;;;;;5062490;28;45335;-73
2021/12/02 03:38:40;;;;;;;;;2.00;0.00;;;;;;;;5086234;27;45588;-73
2021/12/02 03:41:05;;;;;;;;;0.67;0.67;;;;;;;;5089297;27;45581;-73
2021/12/02 03:43:49;;;;;;;;;7.25;2.00;;;;;;;;5068205;27;46373;-73
2021/12/02 03:46:18;;;;;;;;;0.50;0.00;;;;;;;;5077048;27;45716;-73
2021/12/02 03:48:43;;;;;;;;;2.00;0.00;;;;;;;;5073297;27;45579;-73
2021/12/02 03:51:09;;;;;;;;;0.00;0.00;;;;;;;;5091249;27;45475;-71
2021/12/02 03:53:35;;;;;;;;;1.00;0.00;;;;;;;;5080044;27;45529;-72
2021/12/02 03:56:01;;;;;;;;;4.75;1.00;;;;;;;;5083890;27;45462;-72
2021/12/02 03:58:27;;;;;;;;;2.00;1.00;;;;;;;;5090448;27;45578;-72
2021/12/02 04:00:52;;;;;;;;;0.00;0.00;;;;;;;;5076471;27;45368;-72
2021/12/02 04:03:17;;;;;;;;;0.00;0.00;;;;;;;;5080670;27;45474;-71
2021/12/02 04:05:42;;;;;;;;;2.00;0.00;;;;;;;;5081746;27;45416;-72
2021/12/02 04:08:11;;;;;;;;;0.00;0.00;;;;;;;;5072075;27;45476;-71
2021/12/02 04:10:36;;;;;;;;;1.25;1.00;;;;;;;;5079343;27;45478;-73
2021/12/02 04:13:09;;;;;;;;;2.25;0.00;;;;;;;;5087057;27;45454;-74
2021/12/02 04:15:39;;;;;;;;;1.50;0.00;;;;;;;;5077566;27;45398;-74
2021/12/02 04:18:04;;;;;;;;;2.50;1.00;;;;;;;;5090699;27;45492;-74
2021/12/02 04:20:29;;;;;;;;;2.00;0.00;;;;;;;;5081460;27;45522;-74
2021/12/02 04:22:56;;;;;;;;;0.00;0.00;;;;;;;;5073662;27;45502;-73
2021/12/02 04:25:22;;;;;;;;;2.00;0.00;;;;;;;;5078915;27;45720;-73
2021/12/02 04:27:48;;;;;;;;;1.50;0.75;;;;;;;;5090891;27;45302;-73
2021/12/02 04:30:14;;;;;;;;;2.00;0.00;;;;;;;;5094709;27;45521;-73
2021/12/02 04:32:40;;;;;;;;;0.25;0.25;;;;;;;;5080102;27;46461;-74
2021/12/02 04:35:06;;;;;;;;;2.00;0.00;;;;;;;;5078425;27;45415;-73
2021/12/02 04:37:31;;;;;;;;;0.00;0.00;;;;;;;;5083759;27;45465;-73
2021/12/02 04:39:56;;;;;;;;;2.00;0.67;;;;;;;;5070871;27;45418;-73
2021/12/02 04:42:22;;;;;;;;;0.00;0.00;;;;;;;;5095409;27;45548;-73
2021/12/02 04:44:47;;;;;;;;;0.33;0.33;;;;;;;;5078967;27;45340;-73
2021/12/02 04:47:12;;;;;;;;;0.00;0.00;;;;;;;;5081083;27;45387;-73
2021/12/02 04:49:37;;;;;;;;;0.00;0.00;;;;;;;;5088199;27;45502;-73
2021/12/02 04:52:03;;;;;;;;;4.33;0.67;;;;;;;;5081796;27;45977;-73
2021/12/02 04:54:28;;;;;;;;;0.00;0.00;;;;;;;;5077137;27;45378;-73
2021/12/02 04:56:54;;;;;;;;;0.00;0.00;;;;;;;;5054958;28;45588;-73
2021/12/02 04:59:19;;;;;;;;;0.00;0.00;;;;;;;;5084814;27;45351;-73
2021/12/02 05:01:44;;;;;;;;;2.00;0.00;;;;;;;;5066449;27;48230;-73
2021/12/02 05:04:10;;;;;;;;;0.67;0.67;;;;;;;;5075978;27;45481;-73
2021/12/02 05:06:35;;;;;;;;;0.75;0.75;;;;;;;;5084458;27;45417;-73
2021/12/02 05:09:00;;;;;;;;;1.00;1.00;;;;;;;;5082143;27;45310;-73
2021/12/02 05:11:25;;;;;;;;;1.00;0.00;;;;;;;;5076675;27;45434;-73
2021/12/02 05:13:51;;;;;;;;;1.00;0.00;;;;;;;;5077348;27;45425;-73
2021/12/02 05:16:16;;;;;;;;;0.00;0.00;;;;;;;;5086413;27;45449;-73
2021/12/02 05:18:41;;;;;;;;;1.00;0.67;;;;;;;;5073654;27;46617;-73
2021/12/02 05:21:07;;;;;;;;;0.67;0.67;;;;;;;;5079379;27;46724;-73
2021/12/02 05:23:33;;;;;;;;;0.00;0.00;;;;;;;;5059197;27;45452;-73
2021/12/02 05:25:58;;;;;;;;;2.00;0.00;;;;;;;;5076775;27;45346;-73
2021/12/02 05:28:23;;;;;;;;;2.00;1.00;;;;;;;;5074985;27;45508;-73
2021/12/02 05:30:48;;;;;;;;;0.00;0.00;;;;;;;;5062992;28;47272;-73
2021/12/02 05:33:14;;;;;;;;;3.50;0.25;;;;;;;;5088061;27;45287;-73
2021/12/02 05:35:39;;;;;;;;;1.00;1.00;;;;;;;;5082225;27;45620;-73
2021/12/02 05:38:05;;;;;;;;;1.00;1.00;;;;;;;;5084111;27;45334;-73
2021/12/02 05:40:30;;;;;;;;;1.50;1.00;;;;;;;;5065094;27;47503;-73
2021/12/02 05:42:55;;;;;;;;;2.50;1.00;;;;;;;;5064218;27;45855;-73
2021/12/02 05:45:20;;;;;;;;;0.00;0.00;;;;;;;;5094615;27;45403;-73
2021/12/02 05:47:45;;;;;;;;;1.00;1.00;;;;;;;;5063841;27;47382;-73
2021/12/02 05:50:11;;;;;;;;;1.00;1.00;;;;;;;;5080634;27;45928;-73
2021/12/02 05:52:36;;;;;;;;;2.67;1.00;;;;;;;;5088319;27;45486;-73
2021/12/02 05:55:01;;;;;;;;;0.33;0.00;;;;;;;;5087132;27;45564;-73
2021/12/02 05:57:26;;;;;;;;;1.50;1.50;;;;;;;;5078572;27;45411;-73
2021/12/02 05:59:52;;;;;;;;;2.67;1.00;;;;;;;;5075969;27;45338;-73
2021/12/02 06:02:17;;;;;;;;;2.00;1.00;;;;;;;;5079551;27;45534;-73
2021/12/02 06:04:44;;;;;;;;;0.67;0.67;;;;;;;;5080090;27;45616;-73
2021/12/02 06:07:09;;;;;;;;;3.50;1.00;;;;;;;;5070535;27;45546;-73
2021/12/02 06:09:34;;;;;;;;;0.00;0.00;;;;;;;;5087236;27;45488;-73
2021/12/02 06:12:00;;;;;;;;;0.00;0.00;;;;;;;;5082458;27;45526;-73
2021/12/02 06:14:25;;;;;;;;;1.50;1.50;;;;;;;;5078505;27;45581;-73
2021/12/02 06:16:50;;;;;;;;;3.33;2.00;;;;;;;;5076639;27;45314;-73
2021/12/02 06:19:15;;;;;;;;;1.33;1.33;;;;;;;;5070843;27;47573;-73
2021/12/02 06:21:41;;;;;;;;;0.00;0.00;;;;;;;;5077759;27;45574;-73
2021/12/02 06:24:07;;;;;;;;;4.00;1.00;;;;;;;;5085599;27;45314;-73
2021/12/02 06:26:32;;;;;;;;;0.00;0.00;;;;;;;;5090274;27;45388;-74
2021/12/02 06:28:57;;;;;;;;;0.50;0.50;;;;;;;;5087876;27;45784;-73
2021/12/02 06:31:24;;;;;;;;;3.75;0.50;;;;;;;;5091541;27;45269;-73
2021/12/02 06:33:49;;;;;;;;;1.00;1.00;;;;;;;;5077391;27;45700;-74
2021/12/02 06:36:14;;;;;;;;;0.00;0.00;;;;;;;;5064949;27;45445;-75
2021/12/02 06:38:41;;;;;;;;;4.00;0.67;;;;;;;;5062068;28;47221;-74
2021/12/02 06:41:06;;;;;;;;;5.00;1.00;;;;;;;;5080068;27;45436;-73
2021/12/02 06:43:32;;;;;;;;;2.00;0.33;;;;;;;;5078710;27;45408;-73
2021/12/02 06:45:57;;;;;;;;;2.00;0.00;;;;;;;;5076385;27;45407;-73
2021/12/02 06:48:22;;;;;;;;;1.00;1.00;;;;;;;;5081345;27;45347;-73
2021/12/02 06:50:47;;;;;;;;;1.00;1.00;;;;;;;;5062421;28;45616;-73
2021/12/02 06:53:16;;;;;;;;;2.50;0.50;;;;;;;;5083865;27;45472;-73
2021/12/02 06:55:41;;;;;;;;;1.50;1.25;;;;;;;;5089872;27;45439;-73
2021/12/02 06:58:06;;;;;;;;;2.00;0.00;;;;;;;;5078466;27;45424;-73
2021/12/02 07:00:32;;;;;;;;;5.00;1.33;;;;;;;;5080356;27;45253;-73
2021/12/02 07:02:57;;;;;;;;;2.33;1.00;;;;;;;;5080344;27;45226;-73
2021/12/02 07:05:22;;;;;;;;;2.00;0.00;;;;;;;;5079503;27;45532;-73
2021/12/02 07:07:48;;;;;;;;;1.50;0.50;;;;;;;;5079290;27;46107;-73
2021/12/02 07:10:16;;;;;;;;;1.50;0.25;;;;;;;;5078801;27;49105;-73
2021/12/02 07:12:42;;;;;;;;;0.50;0.00;;;;;;;;5076485;27;45676;-73
2021/12/02 07:15:17;;;;;;;;;3.25;1.00;;;;;;;;5081619;27;45457;-73
2021/12/02 07:17:43;;;;;;;;;1.00;1.00;;;;;;;;5076526;27;46265;-73
2021/12/02 07:20:09;;;;;;;;;1.75;0.25;;;;;;;;5080034;27;45341;-74
2021/12/02 07:22:34;;;;;;;;;4.00;1.00;;;;;;;;5077111;27;45376;-73
2021/12/02 07:24:59;;;;;;;;;6.00;4.33;;;;;;;;5081706;27;45472;-72
2021/12/02 07:27:25;;;;;;;;;6.33;5.00;;;;;;;;5083964;27;45459;-75
2021/12/02 07:29:50;;;;;;;;;6.00;5.00;;;;;;;;5079659;27;45415;-74
2021/12/02 07:32:15;;;;;;;;;4.00;1.67;;;;;;;;5062961;28;45488;-73
2021/12/02 07:34:43;;;;;;;;;6.75;3.50;;;;;;;;5078122;27;45419;-73
2021/12/02 07:37:10;;;;;;;;;7.50;5.50;;;;;;;;5076355;27;45342;-73
2021/12/02 07:39:36;;;;;;;;;8.00;5.25;;;;;;;;5059175;27;45875;-74
2021/12/02 07:42:02;;;;;;;;;44.25;40.50;;;;;;;;5090264;27;45799;-74
2021/12/02 07:44:27;;;;;;;;;42.75;33.75;;;;;;;;5085630;27;45537;-73
2021/12/02 07:46:55;;;;;;;;;37.33;27.00;;;;;;;;5074371;27;46080;-73
2021/12/02 07:49:21;;;;;;;;;34.75;28.75;;;;;;;;5059782;27;45960;-73
2021/12/02 07:51:49;;;;;;;;;88.50;66.00;;;;;;;;5075428;27;45585;-73
2021/12/02 07:54:16;;;;;;;;;25.00;25.00;;;;;;;;5082361;27;45579;-73
2021/12/02 07:56:41;;;;;;;;;186.50;136.50;;;;;;;;5061962;28;48829;-73
2021/12/02 07:59:09;;;;;;;;;98.67;71.33;;;;;;;;5078381;27;45367;-73
2021/12/02 08:01:35;;;;;;;;;48.75;39.75;;;;;;;;5078858;27;45422;-73
2021/12/02 08:04:00;;;;;;;;;14.25;7.75;;;;;;;;5057163;27;45292;-73
2021/12/02 08:06:26;;;;;;;;;10.50;10.00;;;;;;;;5090529;27;46028;-73
2021/12/02 08:08:51;;;;;;;;;4.75;4.75;;;;;;;;5079473;27;45422;-73
2021/12/02 08:11:16;;;;;;;;;5.00;3.67;;;;;;;;5078965;27;45465;-73
2021/12/02 08:13:41;;;;;;;;;5.00;5.00;;;;;;;;5081856;27;45413;-73
2021/12/02 08:16:07;;;;;;;;;3.67;3.67;;;;;;;;5090377;27;45284;-73
2021/12/02 08:18:33;;;;;;;;;3.00;3.00;;;;;;;;5077706;27;45271;-73
2021/12/02 08:20:59;;;;;;;;;3.50;3.50;;;;;;;;5079993;27;45343;-74
2021/12/02 08:23:25;;;;;;;;;2.75;1.50;;;;;;;;5076611;27;45641;-73
2021/12/02 08:25:50;;;;;;;;;2.25;2.00;;;;;;;;5078281;27;46327;-73
2021/12/02 08:28:15;;;;;;;;;1.67;1.67;;;;;;;;5076628;27;45347;-74
2021/12/02 08:30:40;;;;;;;;;3.33;2.67;;;;;;;;5091200;27;45288;-74
2021/12/02 08:33:07;;;;;;;;;5.00;1.33;;;;;;;;5081022;27;45315;-73
2021/12/02 08:35:34;;;;;;;;;2.00;2.00;;;;;;;;5077290;27;46104;-74
2021/12/02 08:38:03;;;;;;;;;15.75;6.75;;;;;;;;5079329;27;46065;-73
2021/12/02 08:40:31;;;;;;;;;34.75;33.00;;;;;;;;5081690;27;45503;-73
2021/12/02 08:42:57;;;;;;;;;41.00;35.00;;;;;;;;5074247;27;45513;-73
2021/12/02 08:45:23;;;;;;;;;18.25;16.75;;;;;;;;5079456;27;45427;-73
2021/12/02 08:47:48;;;;;;;;;37.25;28.75;;;;;;;;5078452;27;45835;-73
2021/12/02 08:50:15;;;;;;;;;69.33;51.00;;;;;;;;5078323;27;45488;-74
2021/12/02 08:52:41;;;;;;;;;36.00;33.25;;;;;;;;5059864;27;45476;-73
2021/12/02 08:55:06;;;;;;;;;10.75;9.75;;;;;;;;5075444;27;45819;-73
2021/12/02 08:57:32;;;;;;;;;7.00;7.00;;;;;;;;5077047;27;45337;-73
2021/12/02 08:59:57;;;;;;;;;51.67;42.67;;;;;;;;5079117;27;45598;-73
2021/12/02 09:02:22;;;;;;;;;28.00;22.67;;;;;;;;5077874;27;45232;-73
2021/12/02 09:04:47;;;;;;;;;9.67;9.67;;;;;;;;5078308;27;46022;-73
2021/12/02 09:07:13;;;;;;;;;4.67;4.00;;;;;;;;5077166;27;45621;-73
2021/12/02 09:09:38;;;;;;;;;7.00;7.00;;;;;;;;5085229;27;45410;-73
2021/12/02 09:12:04;;;;;;;;;7.00;4.00;;;;;;;;5079392;27;45700;-74
2021/12/02 09:14:29;;;;;;;;;11.00;7.75;;;;;;;;5081704;27;45905;-73
2021/12/02 09:16:55;;;;;;;;;7.75;5.00;;;;;;;;5085617;27;45326;-73
2021/12/02 09:19:20;;;;;;;;;13.50;10.25;;;;;;;;5076775;27;45478;-73
2021/12/02 09:21:45;;;;;;;;;15.00;12.67;;;;;;;;5074204;27;45308;-73
2021/12/02 09:24:13;;;;;;;;;10.00;9.50;;;;;;;;5079554;27;47618;-73
2021/12/02 09:26:38;;;;;;;;;10.00;8.25;;;;;;;;5077299;27;45310;-73
2021/12/02 09:29:04;;;;;;;;;7.75;5.50;;;;;;;;5077852;27;45522;-73
2021/12/02 09:31:29;;;;;;;;;9.25;6.00;;;;;;;;5077756;27;45378;-73
2021/12/02 09:33:55;;;;;;;;;2.00;2.00;;;;;;;;5073066;27;45340;-73
2021/12/02 09:36:21;;;;;;;;;4.67;3.00;;;;;;;;5079715;27;45360;-73
2021/12/02 09:38:46;;;;;;;;;21.00;13.75;;;;;;;;5077638;27;45511;-73
2021/12/02 09:41:11;;;;;;;;;33.25;26.00;;;;;;;;5076823;27;45443;-73
2021/12/02 09:43:37;;;;;;;;;40.00;32.50;;;;;;;;5058848;27;48131;-73
2021/12/02 09:46:02;;;;;;;;;62.00;46.50;;;;;;;;5073866;27;45500;-73
2021/12/02 09:48:28;;;;;;;;;96.67;82.67;;;;;;;;5090760;27;45348;-73
2021/12/02 09:51:07;;;;;;;;;69.50;48.50;;;;;;;;5077779;27;45248;-73
2021/12/02 09:53:38;;;;;;;;;16.75;13.50;;;;;;;;5077293;27;46206;-73
2021/12/02 09:56:12;;;;;;;;;17.00;14.25;;;;;;;;5076297;27;45540;-73
2021/12/02 09:58:37;;;;;;;;;54.50;38.50;;;;;;;;5076790;27;45318;-73
2021/12/02 10:03:33;;;;;;;;;85.00;62.00;;;;;;;;5077077;27;46169;-73
2021/12/02 10:06:03;;;;;;;;;88.50;62.25;;;;;;;;5081832;27;45488;-73
2021/12/02 10:08:31;;;;;;;;;38.25;30.00;;;;;;;;5081632;27;45498;-74
2021/12/02 10:11:00;;;;;;;;;101.00;88.00;;;;;;;;5065580;28;45475;-73
2021/12/02 10:13:32;;;;;;;;;32.75;26.50;;;;;;;;5077112;27;45414;-73
2021/12/02 10:16:26;;;;;;;;;23.25;20.00;;;;;;;;5057478;27;45754;-73
2021/12/02 10:19:10;;;;;;;;;34.50;26.00;;;;;;;;5072033;27;45396;-73
2021/12/02 10:21:53;;;;;;;;;19.25;15.25;;;;;;;;5087386;27;45438;-73
2021/12/02 10:24:23;;;;;;;;;11.00;11.00;;;;;;;;5078189;27;46066;-73
2021/12/02 10:26:49;;;;;;;;;55.00;40.75;;;;;;;;5076778;27;45439;-73
2021/12/02 10:29:19;;;;;;;;;42.50;35.25;;;;;;;;5076681;27;45353;-73
2021/12/02 10:31:47;;;;;;;;;60.50;44.00;;;;;;;;5076728;27;45922;-73
2021/12/02 10:34:13;;;;;;;;;22.00;19.25;;;;;;;;5074606;27;45427;-73
2021/12/02 10:36:43;;;;;;;;;60.00;41.25;;;;;;;;5077608;27;45375;-73
2021/12/02 10:39:13;;;;;;;;;6.75;6.75;;;;;;;;5090485;27;45492;-73
2021/12/02 10:41:44;;;;;;;;;8.50;5.00;;;;;;;;5059732;28;45517;-73
2021/12/02 10:44:12;;;;;;;;;5.25;5.25;;;;;;;;5076659;27;46181;-73
2021/12/02 10:46:51;;;;;;;;;3.00;3.00;;;;;;;;5076732;27;46891;-73
2021/12/02 10:49:17;;;;;;;;;14.00;8.75;;;;;;;;5057176;27;45430;-73
2021/12/02 10:51:50;;;;;;;;;7.00;4.00;;;;;;;;5073543;27;45512;-73
2021/12/02 10:54:17;;;;;;;;;13.75;10.00;;;;;;;;5077921;27;45751;-73
2021/12/02 10:56:53;;;;;;;;;23.50;20.75;;;;;;;;5076796;27;45571;-73
2021/12/02 10:59:25;;;;;;;;;10.50;8.75;;;;;;;;5076702;27;45444;-73
2021/12/02 11:01:51;;;;;;;;;14.25;9.00;;;;;;;;5076562;27;45528;-73
2021/12/02 11:04:17;;;;;;;;;8.00;6.00;;;;;;;;5074929;27;45684;-73
2021/12/02 11:06:42;;;;;;;;;4.00;3.00;;;;;;;;5055489;28;45544;-73
2021/12/02 11:09:28;;;;;;;;;1.50;1.00;;;;;;;;5090137;27;45350;-73
2021/12/02 11:12:08;;;;;;;;;10.50;8.75;;;;;;;;5078921;27;45352;-73
2021/12/02 11:14:33;;;;;;;;;3.75;2.75;;;;;;;;5086192;27;45532;-73
2021/12/02 11:17:15;;;;;;;;;3.00;2.00;;;;;;;;5083740;27;45494;-73
2021/12/02 11:19:45;;;;;;;;;3.00;1.00;;;;;;;;5058171;28;45452;-73
2021/12/02 11:22:11;;;;;;;;;2.25;2.25;;;;;;;;5056682;28;45523;-74
2021/12/02 11:24:38;;;;;;;;;10.00;5.00;;;;;;;;5057629;28;46101;-73
2021/12/02 11:27:20;;;;;;;;;1.50;1.50;;;;;;;;5059526;27;45367;-73
2021/12/02 11:29:51;;;;;;;;;13.25;12.00;;;;;;;;5059285;28;45376;-73
2021/12/02 11:32:37;;;;;;;;;18.00;17.25;;;;;;;;5059140;28;45365;-73
2021/12/02 11:35:02;;;;;;;;;7.00;6.75;;;;;;;;5058962;28;45425;-73
2021/12/02 11:37:27;;;;;;;;;7.00;7.00;;;;;;;;5058262;28;45494;-73
2021/12/02 11:39:58;;;;;;;;;1.00;1.00;;;;;;;;5054952;28;45349;-73
2021/12/02 11:42:23;;;;;;;;;1.00;1.00;;;;;;;;5069019;28;45309;-73
2021/12/02 11:44:49;;;;;;;;;2.75;1.50;;;;;;;;5059381;28;45516;-73
2021/12/02 11:47:15;;;;;;;;;2.00;2.00;;;;;;;;5054237;28;45432;-73
2021/12/02 11:49:41;;;;;;;;;7.00;4.00;;;;;;;;5057595;28;45291;-73
2021/12/02 11:52:07;;;;;;;;;6.00;3.75;;;;;;;;5055358;28;45557;-73
2021/12/02 11:54:32;;;;;;;;;5.25;3.00;;;;;;;;5058495;28;45632;-72
2021/12/02 11:56:58;;;;;;;;;8.67;6.00;;;;;;;;5059258;28;45501;-73
2021/12/02 11:59:23;;;;;;;;;6.75;5.50;;;;;;;;5058888;28;45378;-73
2021/12/02 12:01:53;;;;;;;;;3.33;3.33;;;;;;;;5059279;28;45353;-73
2021/12/02 12:04:19;;;;;;;;;29.00;25.50;;;;;;;;5057337;28;46130;-73
2021/12/02 12:06:45;;;;;;;;;27.67;27.00;;;;;;;;5053874;28;45483;-73
2021/12/02 12:09:11;;;;;;;;;15.00;11.75;;;;;;;;5060808;28;45400;-73
2021/12/02 12:11:43;;;;;;;;;7.25;6.75;;;;;;;;5058710;27;45687;-73
2021/12/02 12:14:13;;;;;;;;;1.50;1.50;;;;;;;;5058309;28;45457;-73
2021/12/02 12:16:43;;;;;;;;;3.75;3.00;;;;;;;;5058568;28;45975;-73
2021/12/02 12:19:14;;;;;;;;;4.25;1.00;;;;;;;;5071293;27;45457;-73
2021/12/02 12:21:40;;;;;;;;;5.25;1.25;;;;;;;;5089994;27;45366;-73
2021/12/02 12:24:06;;;;;;;;;5.50;4.25;;;;;;;;5078569;27;45375;-73
2021/12/02 12:26:36;;;;;;;;;5.25;2.00;;;;;;;;5078610;27;46323;-73
2021/12/02 12:31:30;;;;;;;;;9.75;5.50;;;;;;;;5078802;27;45442;-73
2021/12/02 12:33:58;;;;;;;;;5.00;4.75;;;;;;;;5074236;27;45541;-73
2021/12/02 12:36:34;;;;;;;;;7.50;5.75;;;;;;;;5079628;27;45417;-73
2021/12/02 12:39:19;;;;;;;;;11.50;11.50;;;;;;;;5080287;27;45307;-73
2021/12/02 12:42:04;;;;;;;;;21.00;14.25;;;;;;;;5059732;28;45306;-73
2021/12/02 12:44:48;;;;;;;;;35.25;31.00;;;;;;;;5078200;27;45982;-73
2021/12/02 12:47:14;;;;;;;;;16.00;12.25;;;;;;;;5076854;27;45466;-73
2021/12/02 12:49:39;;;;;;;;;26.50;23.25;;;;;;;;5077977;27;45505;-73
2021/12/02 12:52:14;;;;;;;;;50.33;33.00;;;;;;;;5075497;27;45544;-73
2021/12/02 12:54:40;;;;;;;;;24.25;20.50;;;;;;;;5075687;27;45399;-73
2021/12/02 12:57:06;;;;;;;;;16.25;14.00;;;;;;;;5080346;27;45482;-73
2021/12/02 12:59:46;;;;;;;;;11.00;11.00;;;;;;;;5078384;27;45465;-73
2021/12/02 13:02:13;;;;;;;;;23.75;22.00;;;;;;;;5078710;27;45336;-73
2021/12/02 13:04:53;;;;;;;;;25.25;18.75;;;;;;;;5077401;27;46074;-73
2021/12/02 13:07:19;;;;;;;;;7.00;4.25;;;;;;;;5077445;27;45326;-73
2021/12/02 13:09:52;;;;;;;;;5.75;2.00;;;;;;;;5074740;27;45489;-73
2021/12/02 13:12:19;;;;;;;;;1.75;1.75;;;;;;;;5080303;27;45339;-73
2021/12/02 13:14:46;;;;;;;;;2.50;2.50;;;;;;;;5077863;27;45959;-73
2021/12/02 13:17:30;;;;;;;;;2.00;2.00;;;;;;;;5085670;27;45311;-73
2021/12/02 13:19:59;;;;;;;;;1.25;0.00;;;;;;;;5078071;27;45570;-73
2021/12/02 13:22:24;;;;;;;;;0.75;0.00;;;;;;;;5073498;28;45513;-73
2021/12/02 13:24:49;;;;;;;;;6.00;3.00;;;;;;;;5071403;28;45935;-74
2021/12/02 13:27:20;;;;;;;;;1.50;1.00;;;;;;;;5079799;27;45406;-73
2021/12/02 13:29:45;;;;;;;;;1.75;1.75;;;;;;;;5060075;28;45469;-73
2021/12/02 13:32:11;;;;;;;;;1.67;1.67;;;;;;;;5077773;27;45403;-73
2021/12/02 13:34:36;;;;;;;;;9.33;8.00;;;;;;;;5077227;27;45409;-73
2021/12/02 13:37:06;;;;;;;;;5.25;3.00;;;;;;;;5074300;27;45367;-73
2021/12/02 13:39:36;;;;;;;;;3.00;3.00;;;;;;;;5077233;27;45431;-73
2021/12/02 13:42:20;;;;;;;;;1.75;1.75;;;;;;;;5079878;27;45274;-73
2021/12/02 13:44:51;;;;;;;;;1.00;1.00;;;;;;;;5077437;27;45485;-73
2021/12/02 13:47:19;;;;;;;;;1.25;1.00;;;;;;;;5076978;27;45640;-73
2021/12/02 13:49:48;;;;;;;;;0.25;0.25;;;;;;;;5077649;27;45734;-73
2021/12/02 13:52:25;;;;;;;;;2.50;1.00;;;;;;;;5076437;27;45495;-73
2021/12/02 13:54:57;;;;;;;;;2.00;2.00;;;;;;;;5073191;27;45352;-73
2021/12/02 13:57:47;;;;;;;;;9.75;6.25;;;;;;;;5087514;27;45898;-73
2021/12/02 14:00:12;;;;;;;;;20.25;15.50;;;;;;;;5078705;27;45396;-73
2021/12/02 14:02:37;;;;;;;;;8.00;6.33;;;;;;;;5058722;28;45570;-73
2021/12/02 14:05:05;;;;;;;;;4.67;2.33;;;;;;;;5077181;27;45464;-73
2021/12/02 14:07:33;;;;;;;;;4.50;3.00;;;;;;;;5077421;27;45971;-73
2021/12/02 14:09:59;;;;;;;;;5.25;3.25;;;;;;;;5073951;27;45502;-73
2021/12/02 14:12:28;;;;;;;;;1.25;1.25;;;;;;;;5078252;27;45375;-73
2021/12/02 14:15:00;;;;;;;;;2.00;2.00;;;;;;;;5080064;27;46098;-73
2021/12/02 14:17:29;;;;;;;;;1.50;1.50;;;;;;;;5082374;27;45515;-73
2021/12/02 14:19:58;;;;;;;;;10.25;9.50;;;;;;;;5084354;27;45506;-74
2021/12/02 14:22:24;;;;;;;;;3.00;2.00;;;;;;;;5076605;27;45252;-73
2021/12/02 14:24:50;;;;;;;;;4.00;4.00;;;;;;;;5072619;27;46515;-73
2021/12/02 14:27:16;;;;;;;;;0.33;0.33;;;;;;;;5079237;27;45404;-73
2021/12/02 14:29:41;;;;;;;;;0.25;0.00;;;;;;;;5077528;27;45347;-73
2021/12/02 14:32:09;;;;;;;;;2.00;2.00;;;;;;;;5076868;27;45703;-73
2021/12/02 14:34:35;;;;;;;;;6.50;6.50;;;;;;;;5076823;27;45797;-73
2021/12/02 14:37:00;;;;;;;;;6.33;6.00;;;;;;;;5073382;27;45517;-73
2021/12/02 14:39:25;;;;;;;;;3.00;3.00;;;;;;;;5077984;27;45490;-73
2021/12/02 14:41:51;;;;;;;;;4.00;3.00;;;;;;;;5077326;27;45476;-73
2021/12/02 14:44:18;;;;;;;;;7.25;6.50;;;;;;;;5060865;27;48564;-73
2021/12/02 14:46:44;;;;;;;;;7.75;6.50;;;;;;;;5078777;27;45383;-73
2021/12/02 14:49:19;;;;;;;;;4.75;4.75;;;;;;;;5084780;27;45866;-73
2021/12/02 14:51:55;;;;;;;;;2.25;1.00;;;;;;;;5088092;27;45299;-73
2021/12/02 14:54:38;;;;;;;;;1.75;1.75;;;;;;;;5083516;27;46022;-73